Time;durP1;ratioP1;P1;durP2;ratioP2;P2;SDS_P1;SDS_P2;PMS_P1;PMS_P2;Temp;Humidity;BMP_temperature;BMP_pressure;BME280_temperature;BME280_humidity;BME280_pressure;Samples;Min_cycle;Max_cycle;Signal;HPM_P1;HPM_P2
2023/06/17 00:01:18;;;;;;;4.72;3.75;;;20.80;50.60;;;;;;5035610;28;20185;-73
2023/06/17 00:03:44;;;;;;;4.07;3.45;;;20.80;51.30;;;;;;5056707;28;20182;-70
2023/06/17 00:06:10;;;;;;;5.20;3.85;;;20.80;50.70;;;;;;5052965;28;20180;-71
2023/06/17 00:08:38;;;;;;;4.75;3.67;;;20.80;50.80;;;;;;5033078;28;20264;-70
2023/06/17 00:11:04;;;;;;;4.45;3.55;;;20.70;50.70;;;;;;5021009;28;20210;-70
2023/06/17 00:13:30;;;;;;;4.30;3.38;;;20.70;50.80;;;;;;5035612;28;20264;-70
2023/06/17 00:16:00;;;;;;;4.22;3.03;;;20.70;50.90;;;;;;5037000;28;20174;-70
2023/06/17 00:18:28;;;;;;;4.32;3.35;;;20.60;50.90;;;;;;5056327;28;20193;-71
2023/06/17 00:20:57;;;;;;;4.63;3.63;;;20.60;50.90;;;;;;5039935;28;20956;-70
2023/06/17 00:23:25;;;;;;;4.55;3.28;;;20.50;50.90;;;;;;5040478;28;20169;-71
2023/06/17 00:25:51;;;;;;;3.80;3.30;;;20.40;50.90;;;;;;5056693;28;20201;-70
2023/06/17 00:28:19;;;;;;;3.70;3.25;;;20.30;51.00;;;;;;5039988;28;20219;-81
2023/06/17 00:30:46;;;;;;;5.40;3.55;;;20.30;51.40;;;;;;5036700;28;20191;-79
2023/06/17 00:33:12;;;;;;;4.32;3.92;;;20.20;51.30;;;;;;5045292;28;20193;-83
2023/06/17 00:35:40;;;;;;;5.72;3.67;;;20.20;51.50;;;;;;5039910;28;20238;-82
2023/06/17 00:38:08;;;;;;;4.93;3.50;;;20.20;51.70;;;;;;5035488;28;20186;-78
2023/06/17 00:40:33;;;;;;;4.25;3.63;;;20.10;52.10;;;;;;5037768;28;20185;-83
2023/06/17 00:43:01;;;;;;;5.68;3.80;;;20.10;52.00;;;;;;5039704;28;20260;-82
2023/06/17 00:45:27;;;;;;;4.85;3.67;;;20.00;52.10;;;;;;5039089;28;20189;-83
2023/06/17 00:47:55;;;;;;;3.97;3.58;;;20.00;52.10;;;;;;5056201;28;20197;-85
2023/06/17 00:50:24;;;;;;;4.53;3.53;;;20.00;52.30;;;;;;5052940;28;20201;-84
2023/06/17 00:52:53;;;;;;;4.55;3.70;;;20.00;52.60;;;;;;5039479;28;20185;-82
2023/06/17 00:55:23;;;;;;;4.05;3.38;;;19.90;52.60;;;;;;5056246;28;20257;-86
2023/06/17 00:57:53;;;;;;;3.70;3.40;;;19.90;52.70;;;;;;5056516;28;20157;-84
2023/06/17 01:00:23;;;;;;;4.55;3.60;;;19.90;52.80;;;;;;5055901;28;20170;-84
2023/06/17 01:02:49;;;;;;;4.30;3.60;;;19.80;52.90;;;;;;5035290;28;20198;-80
2023/06/17 01:05:19;;;;;;;4.20;3.20;;;19.80;52.90;;;;;;5036232;28;20174;-86
2023/06/17 01:07:59;;;;;;;4.72;3.72;;;19.80;53.10;;;;;;5052972;28;20180;-85
2023/06/17 01:10:34;;;;;;;6.07;3.45;;;19.80;53.70;;;;;;5039535;28;22101;-78
2023/06/17 01:13:03;;;;;;;4.85;3.30;;;19.70;53.90;;;;;;5038280;28;20452;-84
2023/06/17 01:15:33;;;;;;;4.50;3.60;;;19.70;53.20;;;;;;5039581;28;20205;-84
2023/06/17 01:18:00;;;;;;;5.18;3.88;;;19.70;53.30;;;;;;5038057;28;20197;-85
2023/06/17 01:20:28;;;;;;;3.85;3.33;;;19.60;53.50;;;;;;5055347;28;20241;-85
2023/06/17 01:22:58;;;;;;;4.60;3.63;;;19.60;53.50;;;;;;5038993;28;20189;-83
2023/06/17 01:25:32;;;;;;;4.60;3.75;;;19.60;53.80;;;;;;5055288;28;20207;-80
2023/06/17 01:28:19;;;;;;;6.95;4.05;;;19.50;54.10;;;;;;5055363;28;20161;-83
2023/06/17 01:30:54;;;;;;;4.43;3.63;;;19.50;54.70;;;;;;5055643;28;20221;-86
2023/06/17 01:33:24;;;;;;;4.50;3.83;;;19.40;54.10;;;;;;5054309;28;20200;-83
2023/06/17 01:36:05;;;;;;;4.32;3.47;;;19.40;54.10;;;;;;5038614;28;20181;-85
2023/06/17 01:38:37;;;;;;;4.13;3.40;;;19.40;54.10;;;;;;5054929;28;20409;-85
2023/06/17 01:41:19;;;;;;;3.88;3.50;;;19.30;54.20;;;;;;5054874;28;20212;-82
2023/06/17 01:43:51;;;;;;;4.60;3.90;;;19.30;54.80;;;;;;5055344;28;20181;-85
2023/06/17 01:46:17;;;;;;;4.38;3.55;;;19.20;54.50;;;;;;5055277;28;20177;-82
2023/06/17 01:48:43;;;;;;;4.47;3.25;;;19.20;54.60;;;;;;5055490;28;20188;-84
2023/06/17 01:51:11;;;;;;;5.47;3.67;;;19.20;54.70;;;;;;5050409;28;20274;-80
2023/06/17 01:53:39;;;;;;;5.32;4.03;;;19.20;54.90;;;;;;5054826;28;20180;-83
2023/06/17 01:56:06;;;;;;;4.47;3.97;;;19.10;55.20;;;;;;5034306;28;20272;-81
2023/06/17 01:58:32;;;;;;;4.55;3.70;;;19.20;55.30;;;;;;5032059;28;20180;-77
2023/06/17 02:01:00;;;;;;;5.72;4.10;;;19.20;55.30;;;;;;5033983;28;20186;-80
2023/06/17 02:03:31;;;;;;;4.53;3.63;;;19.10;55.20;;;;;;5047848;28;20295;-84
2023/06/17 02:05:59;;;;;;;5.20;3.90;;;19.10;55.30;;;;;;5053975;28;20176;-82
2023/06/17 02:08:26;;;;;;;6.13;3.90;;;19.10;55.30;;;;;;5054222;28;20188;-84
2023/06/17 02:10:52;;;;;;;5.85;4.05;;;19.00;55.40;;;;;;5054672;28;20212;-84
2023/06/17 02:13:18;;;;;;;4.05;3.35;;;19.00;55.40;;;;;;5037088;28;20187;-81
2023/06/17 02:15:43;;;;;;;4.57;3.58;;;19.00;55.50;;;;;;5054753;28;20177;-78
2023/06/17 02:18:09;;;;;;;5.55;3.50;;;19.00;55.60;;;;;;5053941;28;20232;-82
2023/06/17 02:20:38;;;;;;;4.32;3.40;;;19.00;55.70;;;;;;5054698;28;20184;-84
2023/06/17 02:23:05;;;;;;;5.28;3.65;;;19.00;56.00;;;;;;5035980;28;20168;-80
2023/06/17 02:25:33;;;;;;;4.03;3.60;;;18.90;55.80;;;;;;5037789;28;20307;-82
2023/06/17 02:28:02;;;;;;;5.75;3.85;;;18.90;56.00;;;;;;5038067;28;20166;-83
2023/06/17 02:30:27;;;;;;;4.35;3.58;;;18.90;56.00;;;;;;5037454;28;20200;-80
2023/06/17 02:32:55;;;;;;;3.88;3.47;;;18.80;56.00;;;;;;5054411;28;20189;-83
2023/06/17 02:35:21;;;;;;;5.13;3.50;;;18.80;56.10;;;;;;5054046;28;20181;-80
2023/06/17 02:37:46;;;;;;;4.53;3.53;;;18.80;56.30;;;;;;5054992;28;20161;-80
2023/06/17 02:40:12;;;;;;;3.90;3.42;;;18.80;56.50;;;;;;5052541;28;20243;-84
2023/06/17 02:42:38;;;;;;;3.92;3.50;;;18.80;56.50;;;;;;5054346;28;20170;-79
2023/06/17 02:45:07;;;;;;;4.60;3.33;;;18.70;56.40;;;;;;5054741;28;20173;-79
2023/06/17 02:47:37;;;;;;;4.13;3.70;;;18.70;56.60;;;;;;5037249;28;20230;-83
2023/06/17 02:50:08;;;;;;;4.28;3.63;;;18.70;57.00;;;;;;5036960;28;20189;-84
2023/06/17 02:52:37;;;;;;;4.25;3.47;;;18.70;57.00;;;;;;5035851;28;20193;-85
2023/06/17 02:55:05;;;;;;;4.45;3.50;;;18.60;56.90;;;;;;5030050;28;20201;-85
2023/06/17 02:57:31;;;;;;;4.32;3.58;;;18.60;56.90;;;;;;5050123;28;20264;-80
2023/06/17 02:59:57;;;;;;;5.90;3.47;;;18.60;57.10;;;;;;5053506;28;20311;-84
2023/06/17 03:02:23;;;;;;;4.43;3.60;;;18.60;57.30;;;;;;5053229;28;20240;-84
2023/06/17 03:04:49;;;;;;;4.25;3.47;;;18.60;57.40;;;;;;5053622;28;20177;-84
2023/06/17 03:07:16;;;;;;;4.13;3.63;;;18.50;57.60;;;;;;5053704;28;20199;-80
2023/06/17 03:09:44;;;;;;;5.20;3.72;;;18.40;57.60;;;;;;5053524;28;20239;-84
2023/06/17 03:12:11;;;;;;;5.47;3.72;;;18.30;57.80;;;;;;5032956;28;20293;-85
2023/06/17 03:14:36;;;;;;;4.22;3.33;;;18.30;57.70;;;;;;5044838;28;20173;-85
2023/06/17 03:17:04;;;;;;;4.28;3.38;;;18.20;57.80;;;;;;5036820;28;20524;-85
2023/06/17 03:19:32;;;;;;;4.10;3.55;;;18.10;58.00;;;;;;5035970;28;20189;-81
2023/06/17 03:22:00;;;;;;;5.13;3.65;;;18.10;58.30;;;;;;5037119;28;20184;-85
2023/06/17 03:24:26;;;;;;;6.13;3.88;;;18.10;58.40;;;;;;5036749;28;20181;-86
2023/06/17 03:26:53;;;;;;;4.25;3.63;;;18.00;59.10;;;;;;5036385;28;20201;-84
2023/06/17 03:29:19;;;;;;;5.05;3.75;;;18.00;58.50;;;;;;5053852;28;20177;-82
2023/06/17 03:31:46;;;;;;;6.97;3.83;;;18.00;59.00;;;;;;5053372;28;20231;-86
2023/06/17 03:34:12;;;;;;;7.35;4.07;;;17.90;59.10;;;;;;5037135;28;20201;-80
2023/06/17 03:36:39;;;;;;;4.72;3.67;;;17.80;59.50;;;;;;5036366;28;20359;-84
2023/06/17 03:39:07;;;;;;;4.15;3.50;;;17.80;59.60;;;;;;5037149;28;20195;-81
2023/06/17 03:41:33;;;;;;;3.75;3.20;;;17.80;59.90;;;;;;5054426;28;20204;-85
2023/06/17 03:44:00;;;;;;;4.40;3.85;;;17.80;60.10;;;;;;5033824;28;20182;-78
2023/06/17 03:46:26;;;;;;;4.00;3.55;;;17.80;60.40;;;;;;5046391;28;20187;-84
2023/06/17 03:48:52;;;;;;;4.57;3.35;;;17.80;60.60;;;;;;5036397;28;20288;-85
2023/06/17 03:51:21;;;;;;;4.03;3.30;;;17.80;61.10;;;;;;5053314;28;20200;-81
2023/06/17 03:53:46;;;;;;;4.40;3.22;;;17.80;61.60;;;;;;5036678;28;20196;-82
2023/06/17 03:56:14;;;;;;;3.53;3.22;;;17.80;61.40;;;;;;5036438;28;20174;-81
2023/06/17 03:58:42;;;;;;;3.70;2.92;;;17.90;61.60;;;;;;5053149;28;20166;-79
2023/06/17 04:01:12;;;;;;;3.92;3.40;;;17.90;61.90;;;;;;5052857;28;20192;-82
2023/06/17 04:03:41;;;;;;;4.32;3.38;;;17.90;62.00;;;;;;5047269;28;20186;-84
2023/06/17 04:06:10;;;;;;;4.32;3.33;;;17.90;62.90;;;;;;5049862;28;20265;-78
2023/06/17 04:08:37;;;;;;;4.68;3.55;;;18.00;62.50;;;;;;5053473;28;20180;-82
2023/06/17 04:11:03;;;;;;;7.40;3.70;;;18.00;62.80;;;;;;5036646;28;20211;-81
2023/06/17 04:13:30;;;;;;;5.07;3.90;;;18.00;62.90;;;;;;5037700;28;20177;-82
2023/06/17 04:15:56;;;;;;;4.30;3.47;;;18.00;63.10;;;;;;5027483;28;20170;-78
2023/06/17 04:18:25;;;;;;;5.07;3.45;;;18.00;63.00;;;;;;5037933;28;20185;-83
2023/06/17 04:20:56;;;;;;;4.88;3.63;;;18.00;63.30;;;;;;5056681;28;20200;-81
2023/06/17 04:23:25;;;;;;;4.82;3.60;;;18.00;63.30;;;;;;5056764;28;20169;-81
2023/06/17 04:25:51;;;;;;;4.55;3.45;;;18.10;63.80;;;;;;5056754;28;20174;-80
2023/06/17 04:28:17;;;;;;;5.07;3.85;;;18.10;63.50;;;;;;5056637;28;20193;-81
2023/06/17 04:30:45;;;;;;;6.82;4.55;;;18.10;63.70;;;;;;5056416;28;20208;-80
2023/06/17 04:33:16;;;;;;;7.25;3.97;;;18.20;63.70;;;;;;5033266;28;20257;-83
2023/06/17 04:35:44;;;;;;;6.93;3.97;;;18.20;64.10;;;;;;5047095;28;20232;-81
2023/06/17 04:38:11;;;;;;;4.55;3.60;;;18.20;63.60;;;;;;5056828;28;20223;-79
2023/06/17 04:40:41;;;;;;;5.13;3.50;;;18.20;62.90;;;;;;5056765;28;20173;-80
2023/06/17 04:43:07;;;;;;;4.88;3.70;;;18.20;62.90;;;;;;5039857;28;20211;-81
2023/06/17 04:45:35;;;;;;;5.05;3.40;;;18.20;62.80;;;;;;5039963;28;20260;-82
2023/06/17 04:48:05;;;;;;;5.32;3.40;;;18.20;62.70;;;;;;5039942;28;20227;-77
2023/06/17 04:50:33;;;;;;;4.18;3.53;;;18.20;62.60;;;;;;5036369;28;20189;-78
2023/06/17 04:53:04;;;;;;;4.53;3.50;;;18.20;62.70;;;;;;5019559;28;20166;-80
2023/06/17 04:55:35;;;;;;;4.70;3.92;;;18.20;62.90;;;;;;5023263;28;20173;-81
2023/06/17 04:58:05;;;;;;;6.38;3.95;;;18.20;62.80;;;;;;5039767;28;20197;-81
2023/06/17 05:00:31;;;;;;;8.25;4.10;;;18.20;63.00;;;;;;5035810;28;20174;-81
2023/06/17 05:02:59;;;;;;;5.25;3.95;;;18.20;62.70;;;;;;5047638;28;20228;-82
2023/06/17 05:05:25;;;;;;;5.43;3.50;;;18.30;62.90;;;;;;5039061;28;20201;-77
2023/06/17 05:07:51;;;;;;;5.07;3.75;;;18.30;62.80;;;;;;5053779;28;20182;-80
2023/06/17 05:10:16;;;;;;;5.60;3.85;;;18.40;62.80;;;;;;5036052;28;20314;-80
2023/06/17 05:12:44;;;;;;;6.95;3.50;;;18.40;62.90;;;;;;5033632;28;20193;-81
2023/06/17 05:15:10;;;;;;;5.15;3.78;;;18.40;63.10;;;;;;5055905;28;20181;-82
2023/06/17 05:17:38;;;;;;;5.65;3.30;;;18.50;63.60;;;;;;5038789;28;20183;-81
2023/06/17 05:20:05;;;;;;;4.80;3.88;;;18.50;62.90;;;;;;5055362;28;20254;-78
2023/06/17 05:22:31;;;;;;;4.88;3.70;;;18.60;62.90;;;;;;5038907;28;20208;-82
2023/06/17 05:24:56;;;;;;;7.05;3.70;;;18.60;62.90;;;;;;5049910;28;20174;-81
2023/06/17 05:27:29;;;;;;;4.57;3.75;;;18.70;62.90;;;;;;5038842;28;20239;-81
2023/06/17 05:29:55;;;;;;;4.43;3.58;;;18.70;63.10;;;;;;5038955;28;20184;-81
2023/06/17 05:32:22;;;;;;;4.10;3.70;;;18.80;62.90;;;;;;5055139;28;20215;-80
2023/06/17 05:34:48;;;;;;;5.13;3.40;;;18.80;62.90;;;;;;5038805;28;20204;-78
2023/06/17 05:37:14;;;;;;;5.38;3.70;;;18.90;63.00;;;;;;5055576;28;20201;-82
2023/06/17 05:39:44;;;;;;;4.07;3.28;;;18.90;63.10;;;;;;5049992;28;20188;-84
2023/06/17 05:42:12;;;;;;;5.63;3.55;;;19.00;63.30;;;;;;5054465;28;20333;-84
2023/06/17 05:44:39;;;;;;;7.10;3.80;;;19.10;63.20;;;;;;5053415;28;20238;-86
2023/06/17 05:47:05;;;;;;;5.20;3.95;;;19.10;63.40;;;;;;5054756;28;20223;-85
2023/06/17 05:49:39;;;;;;;4.53;3.72;;;19.20;63.50;;;;;;5054882;28;20213;-74
2023/06/17 05:52:05;;;;;;;4.72;3.47;;;19.20;63.60;;;;;;5055167;28;20197;-80
2023/06/17 05:54:33;;;;;;;3.83;3.42;;;19.30;63.30;;;;;;5044886;28;20201;-82
2023/06/17 05:56:59;;;;;;;5.07;3.65;;;19.30;63.20;;;;;;5057456;28;20274;-78
2023/06/17 05:59:29;;;;;;;6.22;3.95;;;19.40;63.10;;;;;;5034921;28;20226;-83
2023/06/17 06:01:57;;;;;;;4.90;4.40;;;19.40;63.00;;;;;;5038573;28;20185;-80
2023/06/17 06:04:25;;;;;;;4.72;3.58;;;19.50;63.10;;;;;;5055165;28;20197;-79
2023/06/17 06:06:54;;;;;;;4.63;3.78;;;19.50;63.00;;;;;;5054336;28;20231;-82
2023/06/17 06:09:19;;;;;;;5.50;3.65;;;19.60;62.90;;;;;;5034291;28;20181;-81
2023/06/17 06:11:45;;;;;;;6.47;4.25;;;19.70;62.70;;;;;;5037210;28;20201;-83
2023/06/17 06:14:13;;;;;;;7.32;3.47;;;19.70;62.40;;;;;;5039703;28;20197;-85
2023/06/17 06:16:41;;;;;;;4.75;3.78;;;19.80;62.30;;;;;;5037745;28;20248;-84
2023/06/17 06:19:06;;;;;;;4.18;3.40;;;19.80;62.40;;;;;;5035004;28;20169;-84
2023/06/17 06:21:32;;;;;;;6.95;3.97;;;19.90;62.30;;;;;;5037837;28;20200;-78
2023/06/17 06:23:59;;;;;;;4.13;3.65;;;19.90;62.30;;;;;;5030855;28;20187;-83
2023/06/17 06:26:25;;;;;;;3.45;2.90;;;20.00;62.30;;;;;;5037876;28;20207;-81
2023/06/17 06:28:50;;;;;;;4.13;3.58;;;20.00;62.10;;;;;;5054399;28;20211;-77
2023/06/17 06:31:20;;;;;;;4.10;3.58;;;20.10;62.10;;;;;;5035907;28;20225;-77
2023/06/17 06:33:49;;;;;;;5.40;3.78;;;20.10;61.80;;;;;;5021887;28;20170;-84
2023/06/17 06:36:16;;;;;;;5.30;3.75;;;20.20;61.80;;;;;;5017870;28;20205;-82
2023/06/17 06:38:44;;;;;;;4.30;3.80;;;20.20;61.80;;;;;;5031006;28;20524;-82
2023/06/17 06:41:11;;;;;;;4.43;3.60;;;20.30;61.80;;;;;;5031550;28;20180;-84
2023/06/17 06:43:37;;;;;;;4.75;3.47;;;20.30;61.80;;;;;;5049619;28;20192;-82
2023/06/17 06:46:03;;;;;;;4.93;3.35;;;20.40;61.90;;;;;;5036633;28;20173;-82
2023/06/17 06:48:31;;;;;;;4.88;3.20;;;20.50;61.80;;;;;;5037015;28;20204;-82
2023/06/17 06:50:59;;;;;;;4.55;3.60;;;20.50;61.70;;;;;;5053402;28;20208;-84
2023/06/17 06:53:27;;;;;;;4.45;3.30;;;20.60;61.90;;;;;;5034134;28;20178;-79
2023/06/17 06:55:58;;;;;;;4.78;3.85;;;20.60;61.70;;;;;;5036951;28;20180;-84
2023/06/17 06:58:23;;;;;;;5.18;3.70;;;20.70;61.70;;;;;;5053989;28;20157;-82
2023/06/17 07:00:49;;;;;;;5.55;3.70;;;20.80;61.80;;;;;;5053204;28;20281;-86
2023/06/17 07:03:14;;;;;;;4.38;3.47;;;20.80;61.60;;;;;;5036631;28;20181;-85
2023/06/17 07:05:40;;;;;;;3.95;3.55;;;20.90;61.70;;;;;;5032018;28;20207;-86
2023/06/17 07:08:06;;;;;;;5.00;3.60;;;21.00;61.80;;;;;;5054355;28;20203;-82
2023/06/17 07:10:39;;;;;;;4.57;3.67;;;21.10;61.90;;;;;;5037076;28;20216;-85
2023/06/17 07:13:07;;;;;;;5.03;3.65;;;21.10;61.70;;;;;;5054216;28;20207;-86
2023/06/17 07:15:36;;;;;;;4.80;3.42;;;21.30;61.80;;;;;;5052673;28;20182;-86
2023/06/17 07:18:02;;;;;;;3.67;3.35;;;21.30;61.60;;;;;;5053883;28;20205;-82
2023/06/17 07:20:30;;;;;;;4.10;3.50;;;21.40;61.60;;;;;;5051550;28;20169;-86
2023/06/17 07:22:56;;;;;;;7.45;3.65;;;21.50;61.70;;;;;;5053905;28;20362;-81
2023/06/17 07:25:23;;;;;;;4.20;3.60;;;21.50;61.50;;;;;;5037380;28;20197;-84
2023/06/17 07:27:51;;;;;;;4.05;3.65;;;21.60;61.40;;;;;;5037115;28;20197;-84
2023/06/17 07:30:19;;;;;;;5.20;3.40;;;21.70;61.50;;;;;;5054078;28;20169;-85
2023/06/17 07:32:45;;;;;;;4.30;3.90;;;21.80;61.50;;;;;;5036923;28;20200;-83
2023/06/17 07:35:13;;;;;;;4.15;3.30;;;21.80;61.40;;;;;;5053656;28;20161;-79
2023/06/17 07:37:38;;;;;;;4.05;3.50;;;21.90;61.40;;;;;;5034733;28;20232;-86
2023/06/17 07:40:06;;;;;;;3.95;3.55;;;22.00;61.30;;;;;;5051762;28;20239;-84
2023/06/17 07:42:31;;;;;;;4.50;3.63;;;22.10;61.30;;;;;;5053631;28;20213;-84
2023/06/17 07:44:57;;;;;;;4.20;3.55;;;22.10;61.10;;;;;;5037196;28;20239;-83
2023/06/17 07:47:23;;;;;;;4.82;3.60;;;22.30;61.10;;;;;;5053038;28;20198;-83
2023/06/17 07:49:49;;;;;;;5.60;4.10;;;22.30;61.00;;;;;;5056718;28;20217;-85
2023/06/17 07:52:15;;;;;;;5.57;3.70;;;22.40;60.70;;;;;;5056797;28;20197;-83
2023/06/17 07:54:41;;;;;;;4.07;3.50;;;22.50;61.10;;;;;;5036431;28;20230;-86
2023/06/17 07:57:06;;;;;;;4.32;3.70;;;22.60;61.20;;;;;;5056441;28;20199;-78
2023/06/17 07:59:34;;;;;;;3.70;3.28;;;22.70;61.20;;;;;;5033458;28;20261;-85
2023/06/17 08:02:00;;;;;;;3.92;3.53;;;22.80;62.00;;;;;;5035690;28;20283;-87
2023/06/17 08:04:28;;;;;;;5.32;3.60;;;22.90;61.30;;;;;;5053005;28;20235;-84
2023/06/17 08:06:54;;;;;;;3.70;3.35;;;23.00;61.30;;;;;;5040907;28;20420;-81
2023/06/17 08:09:22;;;;;;;4.78;3.40;;;23.10;61.30;;;;;;5031597;28;20178;-85
2023/06/17 08:11:50;;;;;;;4.50;3.45;;;23.10;61.40;;;;;;5021188;28;20209;-88
2023/06/17 08:14:16;;;;;;;4.47;3.63;;;23.20;61.30;;;;;;5022179;28;20332;-86
2023/06/17 08:16:45;;;;;;;4.55;3.55;;;23.30;61.40;;;;;;5025932;28;20170;-83
2023/06/17 08:19:11;;;;;;;4.32;3.50;;;23.40;61.40;;;;;;5058183;28;20173;-84
2023/06/17 08:21:37;;;;;;;3.95;3.53;;;23.50;61.30;;;;;;5041096;28;20201;-90
2023/06/17 08:24:19;;;;;;;4.68;3.70;;;23.60;61.20;;;;;;5059988;28;20184;-80
2023/06/17 08:26:45;;;;;;;5.60;3.45;;;23.60;60.70;;;;;;5038631;28;20247;-82
2023/06/17 08:29:13;;;;;;;4.75;3.60;;;23.70;60.90;;;;;;5041806;28;20481;-87
2023/06/17 08:31:44;;;;;;;4.32;3.60;;;23.80;60.90;;;;;;5041429;28;20205;-68
2023/06/17 08:34:13;;;;;;;3.95;3.38;;;23.90;60.80;;;;;;5053617;28;20210;-67
2023/06/17 08:36:46;;;;;;;3.80;3.25;;;23.90;60.30;;;;;;5041530;28;20200;-70
2023/06/17 08:39:15;;;;;;;3.67;3.38;;;24.00;59.80;;;;;;5056524;28;20170;-78
2023/06/17 08:41:42;;;;;;;3.63;3.10;;;24.10;59.80;;;;;;5053330;28;20178;-68
2023/06/17 08:44:13;;;;;;;4.05;3.10;;;24.20;59.50;;;;;;5051613;28;20188;-68
2023/06/17 08:46:41;;;;;;;3.75;3.03;;;24.30;59.50;;;;;;5056984;28;20263;-66
2023/06/17 08:49:08;;;;;;;4.57;3.00;;;24.30;58.90;;;;;;5056382;28;20181;-66
2023/06/17 08:51:34;;;;;;;3.42;3.00;;;24.40;57.90;;;;;;5052734;28;20225;-66
2023/06/17 08:54:03;;;;;;;3.53;2.80;;;24.50;58.00;;;;;;5036541;28;20194;-71
2023/06/17 08:56:28;;;;;;;2.92;2.60;;;24.60;57.80;;;;;;5039908;28;20189;-67
2023/06/17 08:58:55;;;;;;;2.97;2.45;;;24.70;57.40;;;;;;5055308;28;20181;-67
2023/06/17 09:01:25;;;;;;;2.78;2.42;;;24.70;56.90;;;;;;5055739;28;20177;-67
2023/06/17 09:03:53;;;;;;;2.88;2.50;;;24.80;56.30;;;;;;5056365;28;20192;-66
2023/06/17 09:06:28;;;;;;;4.32;2.80;;;24.90;56.30;;;;;;5055502;28;20283;-67
2023/06/17 09:08:56;;;;;;;2.65;2.45;;;24.90;55.40;;;;;;5039505;28;20172;-66
2023/06/17 09:11:27;;;;;;;3.28;2.97;;;25.00;55.70;;;;;;5039215;28;20197;-68
2023/06/17 09:13:58;;;;;;;5.15;2.95;;;25.10;55.40;;;;;;5038347;28;20184;-71
2023/06/17 09:16:27;;;;;;;2.70;2.50;;;25.20;55.80;;;;;;5056001;28;20220;-72
2023/06/17 09:18:55;;;;;;;4.65;2.63;;;25.20;55.80;;;;;;5049299;28;20196;-72
2023/06/17 09:21:20;;;;;;;3.55;3.00;;;25.30;56.00;;;;;;5056006;28;20181;-72
2023/06/17 09:24:05;;;;;;;3.50;3.00;;;25.40;55.80;;;;;;5052458;28;20184;-71
2023/06/17 09:26:33;;;;;;;2.65;2.38;;;25.50;55.20;;;;;;5038881;28;20201;-72
2023/06/17 09:29:06;;;;;;;2.92;2.55;;;25.60;55.40;;;;;;5055238;28;20185;-71
2023/06/17 09:31:45;;;;;;;3.00;2.70;;;25.60;55.00;;;;;;5055305;28;20262;-71
2023/06/17 09:34:11;;;;;;;3.00;2.53;;;25.70;54.50;;;;;;5038378;28;20176;-71
2023/06/17 09:36:40;;;;;;;2.67;2.45;;;25.80;54.80;;;;;;5055390;28;20169;-71
2023/06/17 09:39:08;;;;;;;3.05;2.75;;;25.80;54.40;;;;;;5055202;28;20197;-71
2023/06/17 09:41:41;;;;;;;3.20;2.78;;;25.90;54.60;;;;;;5042728;28;20212;-71
2023/06/17 09:44:07;;;;;;;2.90;2.60;;;26.00;54.20;;;;;;5047242;28;20182;-71
2023/06/17 09:46:39;;;;;;;4.15;2.78;;;26.10;54.40;;;;;;5054753;28;20177;-68
2023/06/17 09:49:15;;;;;;;4.55;3.28;;;26.20;54.30;;;;;;5040837;28;20173;-72
2023/06/17 09:51:42;;;;;;;3.20;2.70;;;26.30;53.90;;;;;;5048299;28;20239;-73
2023/06/17 09:54:09;;;;;;;2.97;2.67;;;26.40;54.20;;;;;;5049350;28;20197;-71
2023/06/17 09:56:35;;;;;;;3.33;2.63;;;26.40;54.10;;;;;;5055690;28;20178;-71
2023/06/17 09:59:03;;;;;;;4.25;2.90;;;26.50;54.00;;;;;;5037761;28;20195;-72
2023/06/17 10:01:32;;;;;;;7.25;4.70;;;26.60;53.60;;;;;;5051151;28;20193;-72
2023/06/17 10:04:02;;;;;;;6.10;4.30;;;26.60;53.60;;;;;;5038259;28;20331;-71
2023/06/17 10:06:35;;;;;;;5.32;3.63;;;26.70;53.40;;;;;;5052696;28;20185;-72
2023/06/17 10:09:10;;;;;;;3.45;3.15;;;26.80;53.10;;;;;;5025960;28;20193;-71
2023/06/17 10:11:39;;;;;;;4.07;2.97;;;26.90;53.00;;;;;;5054041;28;20228;-72
2023/06/17 10:14:19;;;;;;;3.38;3.00;;;26.90;53.20;;;;;;5054530;28;20169;-72
2023/06/17 10:16:49;;;;;;;3.95;3.55;;;27.10;52.50;;;;;;5037857;28;20252;-68
2023/06/17 10:19:19;;;;;;;4.13;3.30;;;27.10;52.90;;;;;;5054813;28;20174;-68
2023/06/17 10:21:48;;;;;;;3.78;2.85;;;27.20;52.70;;;;;;5037445;28;20179;-66
2023/06/17 10:24:16;;;;;;;3.90;3.03;;;27.30;52.60;;;;;;5054593;28;20200;-65
2023/06/17 10:26:44;;;;;;;3.10;2.80;;;27.30;52.80;;;;;;5054547;28;20229;-65
2023/06/17 10:29:12;;;;;;;4.30;3.00;;;27.40;52.10;;;;;;5038196;28;20212;-65
2023/06/17 10:31:42;;;;;;;6.03;3.05;;;27.50;52.20;;;;;;5037507;28;20240;-66
2023/06/17 10:34:14;;;;;;;3.58;2.95;;;27.60;52.20;;;;;;5053992;28;20185;-65
2023/06/17 10:36:39;;;;;;;3.47;3.10;;;27.70;52.70;;;;;;5037512;28;20161;-68
2023/06/17 10:39:14;;;;;;;3.22;2.70;;;27.80;52.10;;;;;;5037930;28;20206;-66
2023/06/17 10:41:46;;;;;;;4.75;2.65;;;28.00;51.60;;;;;;5054104;28;20272;-66
2023/06/17 10:44:24;;;;;;;3.63;2.92;;;28.10;51.60;;;;;;5037719;28;20185;-68
2023/06/17 10:46:50;;;;;;;3.20;2.90;;;28.30;50.90;;;;;;5037740;28;20197;-67
2023/06/17 10:49:22;;;;;;;3.17;2.70;;;28.30;51.30;;;;;;5037330;28;20288;-69
2023/06/17 10:51:48;;;;;;;3.33;3.03;;;28.40;50.50;;;;;;5037259;28;20274;-66
2023/06/17 10:54:14;;;;;;;4.45;2.78;;;28.50;50.30;;;;;;5052951;28;20223;-68
2023/06/17 10:56:54;;;;;;;3.35;2.58;;;28.70;50.30;;;;;;5037143;28;20237;-67
2023/06/17 10:59:28;;;;;;;3.33;3.03;;;28.80;49.20;;;;;;5050542;28;20193;-65
2023/06/17 11:02:06;;;;;;;2.97;2.67;;;29.00;48.50;;;;;;5034107;28;20293;-65
2023/06/17 11:04:40;;;;;;;3.08;2.80;;;29.20;49.40;;;;;;5037699;28;20264;-65
2023/06/17 11:07:07;;;;;;;3.50;3.20;;;29.40;50.30;;;;;;5017747;28;20181;-66
2023/06/17 11:09:34;;;;;;;3.53;3.10;;;29.60;50.00;;;;;;5037767;28;20169;-66
2023/06/17 11:12:06;;;;;;;4.03;3.42;;;29.70;50.40;;;;;;5053835;28;20196;-66
2023/06/17 11:14:37;;;;;;;3.53;3.22;;;29.90;49.00;;;;;;5053941;28;20227;-67
2023/06/17 11:17:05;;;;;;;3.40;3.10;;;30.10;49.10;;;;;;5053907;28;20168;-66
2023/06/17 11:19:30;;;;;;;3.75;3.35;;;30.20;48.80;;;;;;5053913;28;20252;-66
2023/06/17 11:22:03;;;;;;;2.88;2.63;;;30.30;48.30;;;;;;5053582;28;20224;-66
2023/06/17 11:24:30;;;;;;;3.97;3.20;;;30.50;48.10;;;;;;5041112;28;20183;-66
2023/06/17 11:26:57;;;;;;;3.50;3.17;;;30.60;47.50;;;;;;5040699;28;20172;-68
2023/06/17 11:29:31;;;;;;;4.00;3.38;;;30.60;46.70;;;;;;5037672;28;20266;-68
2023/06/17 11:32:00;;;;;;;4.20;3.58;;;30.60;46.80;;;;;;5038829;28;20201;-69
2023/06/17 11:34:31;;;;;;;4.60;3.60;;;30.60;46.10;;;;;;5054195;28;20188;-69
2023/06/17 11:37:00;;;;;;;3.97;3.42;;;30.70;46.70;;;;;;5040879;28;20228;-69
2023/06/17 11:39:30;;;;;;;4.18;3.78;;;30.70;46.70;;;;;;5057629;28;20181;-69
2023/06/17 11:42:02;;;;;;;4.63;3.72;;;30.70;46.20;;;;;;5057390;28;20181;-69
2023/06/17 11:44:32;;;;;;;3.83;3.42;;;30.90;46.70;;;;;;5057555;28;20253;-68
2023/06/17 11:47:06;;;;;;;5.60;3.13;;;31.00;46.60;;;;;;5053858;28;20197;-68
2023/06/17 11:49:40;;;;;;;4.05;3.38;;;31.20;46.30;;;;;;5039127;28;20291;-68
2023/06/17 11:52:09;;;;;;;4.88;2.75;;;31.40;46.10;;;;;;5021248;28;20193;-68
2023/06/17 11:54:49;;;;;;;4.45;3.00;;;31.60;45.80;;;;;;5032727;28;20177;-68
2023/06/17 11:57:33;;;;;;;2.80;2.50;;;31.80;43.60;;;;;;5057388;28;20204;-69
2023/06/17 12:00:02;;;;;;;2.58;2.38;;;31.90;43.00;;;;;;5040283;28;20177;-68
2023/06/17 12:02:35;;;;;;;3.75;2.60;;;32.10;44.50;;;;;;5055587;28;20187;-68
2023/06/17 12:05:02;;;;;;;2.83;2.42;;;32.20;43.70;;;;;;5048637;28;20169;-69
2023/06/17 12:07:29;;;;;;;2.78;2.35;;;32.30;43.20;;;;;;5035528;28;20179;-67
2023/06/17 12:09:56;;;;;;;3.17;2.20;;;32.40;42.90;;;;;;5057090;28;20204;-68
2023/06/17 12:12:32;;;;;;;2.83;2.50;;;32.50;42.60;;;;;;5056641;28;20276;-67
2023/06/17 12:15:12;;;;;;;2.60;2.40;;;32.60;41.80;;;;;;5040008;28;20169;-67
2023/06/17 12:17:48;;;;;;;7.25;4.70;;;32.70;42.10;;;;;;5035253;28;20188;-68
2023/06/17 12:20:18;;;;;;;4.78;3.38;;;32.70;42.50;;;;;;5039978;28;20263;-68
2023/06/17 12:22:45;;;;;;;3.08;2.72;;;32.80;41.70;;;;;;5033745;28;20185;-68
2023/06/17 12:25:11;;;;;;;3.08;2.65;;;32.90;41.40;;;;;;5019982;28;20169;-68
2023/06/17 12:27:37;;;;;;;2.45;2.25;;;33.00;41.10;;;;;;5033306;28;20234;-70
2023/06/17 12:30:07;;;;;;;2.22;2.03;;;33.00;40.40;;;;;;5038700;28;20200;-67
2023/06/17 12:32:33;;;;;;;2.13;1.92;;;33.00;40.10;;;;;;5055834;28;20196;-68
2023/06/17 12:35:02;;;;;;;2.20;2.00;;;32.90;39.20;;;;;;5054679;28;20248;-67
2023/06/17 12:37:32;;;;;;;2.97;2.22;;;32.80;39.70;;;;;;5019646;28;20235;-68
2023/06/17 12:40:00;;;;;;;2.78;2.00;;;32.70;40.30;;;;;;5050505;28;20188;-68
2023/06/17 12:42:26;;;;;;;3.35;2.20;;;32.70;40.00;;;;;;5055794;28;20257;-67
2023/06/17 12:44:52;;;;;;;2.10;1.90;;;32.80;40.10;;;;;;5055966;28;20354;-67
2023/06/17 12:47:19;;;;;;;2.10;1.60;;;32.90;39.20;;;;;;5055728;28;20222;-68
2023/06/17 12:49:45;;;;;;;2.10;1.90;;;33.00;38.30;;;;;;5045687;28;20303;-68
2023/06/17 12:52:10;;;;;;;2.20;2.00;;;33.00;38.30;;;;;;5056487;28;20280;-67
2023/06/17 12:54:38;;;;;;;2.20;2.00;;;33.00;38.30;;;;;;5055440;28;20191;-68